Glen Cove, Washington
Current Conditions -  °F | °C
As of 3:56 AM on Thursday 29 Jan 2015 (Local Time) from KNUW Reporting Station
Broken Clouds Broken Clouds  
Wind Chill: 42°   Ceiling: 8000
Heat Index: 42°   Visibility: 10mi
Dew Point: 37°   Wind: 3mph
Humidity: 82%   Direction: 40°NE
Pressure: 30.39"   Gusts: NA
Location:  48.026°N, 122.859°W
Report Text: KNUW 291156Z 04003KT 10SM FEW012 SCT030 BKN080 06/03 A3039 RMK AO2 SLP294 T00560028 10067 20028 58003 VISNO E $
Loading
Personal Weather Stations






























Interactive Weather Map New forecast layout! Learn more

10-Day Weather Forecast

Advertisements
Track Severe Weather on mobile